createdAt,value
2023-03-21T00:00:58.009Z,32.96
2023-03-21T00:05:05.888Z,32.94
2023-03-21T00:08:59.027Z,32.93
2023-03-21T00:12:57.983Z,32.88
2023-03-21T00:16:57.967Z,32.87
2023-03-21T00:21:15.737Z,32.82
2023-03-21T00:24:59.111Z,32.77
2023-03-21T00:28:58.100Z,32.74
2023-03-21T00:33:01.461Z,32.73
2023-03-21T00:36:59.062Z,32.79
2023-03-21T00:41:01.914Z,32.67
2023-03-21T00:44:58.988Z,32.67
2023-03-21T00:48:57.951Z,32.65
2023-03-21T00:52:57.973Z,32.60
2023-03-21T00:56:58.142Z,32.59
2023-03-21T01:00:58.346Z,32.56
2023-03-21T01:04:58.498Z,32.56
2023-03-21T01:08:58.667Z,32.52
2023-03-21T01:12:58.839Z,32.49
2023-03-21T01:16:59.039Z,32.52
2023-03-21T01:20:59.136Z,32.52
2023-03-21T01:25:12.050Z,32.48
2023-03-21T01:29:00.288Z,32.48
2023-03-21T01:32:59.244Z,32.44
2023-03-21T01:36:59.219Z,32.43
2023-03-21T01:41:00.485Z,32.43
2023-03-21T01:44:59.470Z,32.41
2023-03-21T01:48:59.625Z,32.43
2023-03-21T01:52:59.749Z,32.39
2023-03-21T01:56:59.917Z,32.39
2023-03-21T02:01:00.151Z,32.42
2023-03-21T02:05:00.236Z,32.57
2023-03-21T02:09:00.421Z,32.42
2023-03-21T02:13:00.550Z,32.29
2023-03-21T02:17:00.738Z,32.22
2023-03-21T02:21:00.914Z,32.29
2023-03-21T02:25:04.464Z,32.25
2023-03-21T02:29:02.042Z,32.29
2023-03-21T02:33:00.999Z,32.23
2023-03-21T02:37:01.020Z,32.22
2023-03-21T02:41:03.425Z,32.31
2023-03-21T02:45:01.301Z,32.23
2023-03-21T02:49:01.437Z,32.21
2023-03-21T02:53:01.610Z,32.20
2023-03-21T02:57:01.747Z,32.17
2023-03-21T03:01:01.920Z,32.19
2023-03-21T03:05:06.438Z,32.11
2023-03-21T03:09:03.330Z,32.13
2023-03-21T03:13:02.010Z,32.12
2023-03-21T03:17:01.994Z,32.09
2023-03-21T03:21:02.246Z,32.10
2023-03-21T03:25:09.496Z,32.12
2023-03-21T03:29:03.267Z,32.16
2023-03-21T03:33:02.240Z,32.05
2023-03-21T03:37:02.276Z,32.03
2023-03-21T03:41:02.324Z,32.07
2023-03-21T03:45:02.482Z,32.02
2023-03-21T03:49:02.605Z,32.05
2023-03-21T03:53:07.115Z,32.00
2023-03-21T03:57:03.730Z,32.01
2023-03-21T04:01:02.699Z,31.98
2023-03-21T04:05:02.661Z,31.99
2023-03-21T04:09:10.516Z,31.97
2023-03-21T04:13:03.692Z,31.92
2023-03-21T04:17:02.644Z,31.94
2023-03-21T04:21:02.626Z,31.93
2023-03-21T04:25:02.738Z,32.04
2023-03-21T04:29:02.872Z,32.00
2023-03-21T04:33:02.996Z,31.90
2023-03-21T04:37:03.134Z,31.89
2023-03-21T04:41:03.276Z,31.87
2023-03-21T04:45:03.411Z,31.93
2023-03-21T04:49:03.510Z,31.87
2023-03-21T04:53:03.679Z,31.82
2023-03-21T04:57:03.815Z,31.80
2023-03-21T05:01:03.998Z,31.84
2023-03-21T05:05:04.104Z,31.84
2023-03-21T05:09:04.232Z,31.78
2023-03-21T05:13:04.459Z,31.77
2023-03-21T05:17:04.597Z,31.78
2023-03-21T05:21:04.680Z,31.78
2023-03-21T05:25:04.851Z,31.78
2023-03-21T05:29:04.978Z,31.72
2023-03-21T05:33:05.172Z,31.78
2023-03-21T05:37:05.269Z,31.72
2023-03-21T05:41:05.439Z,31.74
2023-03-21T05:45:05.532Z,31.69
2023-03-21T05:49:05.692Z,31.77
2023-03-21T05:53:05.839Z,31.75
2023-03-21T05:57:06.043Z,31.64
2023-03-21T06:01:06.118Z,31.71
2023-03-21T06:05:06.280Z,32.14
2023-03-21T06:09:06.297Z,35.02
2023-03-21T06:13:06.237Z,32.99
2023-03-21T06:17:06.165Z,32.73
2023-03-21T06:21:06.136Z,32.56
2023-03-21T06:25:06.111Z,32.38
2023-03-21T06:29:06.074Z,32.25
2023-03-21T06:33:06.011Z,32.11
2023-03-21T06:37:06.024Z,32.05
2023-03-21T06:41:05.983Z,31.99
2023-03-21T06:45:05.913Z,32.55
2023-03-21T06:49:05.894Z,33.16
2023-03-21T06:53:05.842Z,33.02
2023-03-21T06:57:05.834Z,33.98
2023-03-21T07:01:05.810Z,35.98
2023-03-21T07:05:05.726Z,35.52
2023-03-21T07:09:05.699Z,35.77
2023-03-21T07:13:05.667Z,36.08
2023-03-21T07:17:05.671Z,37.04
2023-03-21T07:21:06.190Z,37.03
2023-03-21T07:25:05.772Z,37.42
2023-03-21T07:29:05.531Z,37.67
2023-03-21T07:33:05.571Z,38.14
2023-03-21T07:37:05.666Z,38.51
2023-03-21T07:41:05.662Z,39.08
2023-03-21T07:45:05.727Z,39.12
2023-03-21T07:49:05.850Z,40.07
2023-03-21T07:53:05.959Z,37.52
2023-03-21T07:57:06.015Z,38.16
2023-03-21T08:01:06.089Z,37.53
2023-03-21T08:05:06.182Z,37.29
2023-03-21T08:09:06.243Z,37.04
2023-03-21T08:13:06.286Z,36.87
2023-03-21T08:17:06.356Z,36.67
2023-03-21T08:21:08.270Z,36.53
2023-03-21T08:25:06.436Z,36.37
2023-03-21T08:29:06.268Z,36.26
2023-03-21T08:33:06.237Z,36.14
2023-03-21T08:37:06.230Z,36.02
2023-03-21T08:41:06.195Z,35.99
2023-03-21T08:45:06.117Z,36.41
2023-03-21T08:49:06.092Z,37.07
2023-03-21T08:53:06.064Z,34.15
2023-03-21T08:57:06.029Z,34.52
2023-03-21T09:01:06.006Z,35.22
2023-03-21T09:05:05.972Z,34.54
2023-03-21T09:09:05.917Z,36.08
2023-03-21T09:13:05.892Z,35.94
2023-03-21T09:17:05.850Z,35.72
2023-03-21T09:21:05.801Z,35.72
2023-03-21T09:25:05.808Z,35.86
2023-03-21T09:29:05.780Z,35.99
2023-03-21T09:33:05.712Z,36.18
2023-03-21T09:37:05.690Z,36.53
2023-03-21T09:41:05.641Z,36.71
2023-03-21T09:45:05.639Z,35.17
2023-03-21T09:49:05.568Z,35.63
2023-03-21T09:53:05.557Z,36.04
2023-03-21T09:57:05.674Z,35.12
2023-03-21T10:01:05.779Z,35.73
2023-03-21T10:05:05.908Z,36.76
2023-03-21T10:09:05.985Z,37.80
2023-03-21T10:13:06.066Z,37.91
2023-03-21T10:17:06.110Z,38.24
2023-03-21T10:21:06.346Z,38.53
2023-03-21T10:25:06.573Z,38.88
2023-03-21T10:29:06.853Z,39.33
2023-03-21T10:33:06.932Z,39.50
2023-03-21T10:37:07.027Z,39.61
2023-03-21T10:41:07.145Z,39.86
2023-03-21T10:45:07.226Z,40.23
2023-03-21T10:49:07.329Z,39.56
2023-03-21T10:53:07.410Z,35.28
2023-03-21T10:57:07.447Z,36.50
2023-03-21T11:01:07.560Z,37.34
2023-03-21T11:05:07.597Z,37.72
2023-03-21T11:09:07.797Z,38.13
2023-03-21T11:13:07.954Z,38.49
2023-03-21T11:17:08.211Z,38.96
2023-03-21T11:21:08.137Z,39.29
2023-03-21T11:25:08.197Z,39.76
2023-03-21T11:29:08.171Z,40.06
2023-03-21T11:33:08.202Z,40.43
2023-03-21T11:37:08.233Z,41.08
2023-03-21T11:41:08.347Z,41.54
2023-03-21T11:45:08.415Z,36.38
2023-03-21T11:49:08.524Z,34.72
2023-03-21T11:53:08.608Z,36.14
2023-03-21T11:57:08.667Z,38.37
2023-03-21T12:01:08.840Z,39.16
2023-03-21T12:05:08.969Z,39.71
2023-03-21T12:09:09.042Z,40.27
2023-03-21T12:13:09.056Z,41.15
2023-03-21T12:17:09.113Z,41.50
2023-03-21T12:21:09.207Z,41.62
2023-03-21T12:25:09.394Z,42.11
2023-03-21T12:29:09.362Z,42.37
2023-03-21T12:33:09.327Z,42.99
2023-03-21T12:37:09.324Z,33.63
2023-03-21T12:41:09.341Z,33.88
2023-03-21T12:45:15.224Z,34.05
2023-03-21T12:49:10.269Z,33.89
2023-03-21T12:53:09.116Z,33.91
2023-03-21T12:57:09.194Z,33.68
2023-03-21T13:01:09.334Z,33.09
2023-03-21T13:05:09.380Z,33.44
2023-03-21T13:09:09.590Z,33.69
2023-03-21T13:13:09.921Z,33.53
2023-03-21T13:17:09.893Z,34.44
2023-03-21T13:21:10.005Z,32.53
2023-03-21T13:25:10.097Z,33.80
2023-03-21T13:29:10.295Z,33.27
2023-03-21T13:33:10.282Z,32.77
2023-03-21T13:37:10.333Z,32.58
2023-03-21T13:41:10.399Z,32.43
2023-03-21T13:45:10.549Z,32.23
2023-03-21T13:49:10.520Z,32.21
2023-03-21T13:53:10.561Z,32.09
2023-03-21T13:57:10.628Z,32.06
2023-03-21T14:05:29.858Z,32.06
2023-03-21T14:09:29.660Z,31.83
2023-03-21T14:13:31.255Z,31.97
2023-03-21T14:17:29.820Z,32.06
2023-03-21T14:21:29.948Z,32.04
2023-03-21T14:25:36.900Z,32.06
2023-03-21T14:29:31.848Z,32.03
2023-03-21T14:33:29.853Z,31.97
2023-03-21T14:37:29.889Z,32.04
2023-03-21T14:41:29.792Z,31.96
2023-03-21T14:45:29.947Z,31.91
2023-03-21T14:49:30.064Z,31.88
2023-03-21T14:53:30.292Z,31.79
2023-03-21T14:57:30.295Z,31.73
2023-03-21T15:01:30.461Z,31.70
2023-03-21T15:05:30.610Z,31.69
2023-03-21T15:09:30.854Z,31.65
2023-03-21T15:13:30.885Z,31.65
2023-03-21T15:17:31.032Z,31.79
2023-03-21T15:21:31.204Z,31.97
2023-03-21T15:25:31.435Z,31.95
2023-03-21T15:29:31.498Z,32.08
2023-03-21T15:33:31.623Z,32.19
2023-03-21T15:37:31.798Z,32.34
2023-03-21T15:41:32.059Z,32.36
2023-03-21T15:45:32.157Z,32.39
2023-03-21T15:49:32.273Z,32.42
2023-03-21T15:53:32.437Z,32.38
2023-03-21T15:57:32.721Z,32.22
2023-03-21T16:01:32.735Z,32.07
2023-03-21T16:05:32.907Z,32.06
2023-03-21T16:09:33.063Z,31.98
2023-03-21T16:13:33.326Z,31.99
2023-03-21T16:17:33.464Z,31.90
2023-03-21T16:21:33.572Z,31.88
2023-03-21T16:25:33.712Z,31.84
2023-03-21T16:29:33.895Z,31.85
2023-03-21T16:33:34.028Z,31.92
2023-03-21T16:37:34.224Z,31.99
2023-03-21T16:41:34.357Z,32.17
2023-03-21T16:45:34.599Z,32.29
2023-03-21T16:49:34.686Z,32.47
2023-03-21T16:53:34.808Z,32.58
2023-03-21T16:57:34.974Z,32.70
2023-03-21T17:01:35.168Z,32.86
2023-03-21T17:05:35.280Z,32.97
2023-03-21T17:09:35.433Z,33.10
2023-03-21T17:13:35.576Z,33.17
2023-03-21T17:17:35.755Z,33.25
2023-03-21T17:21:35.893Z,33.32
2023-03-21T17:25:36.062Z,33.41
2023-03-21T17:29:36.247Z,33.42
2023-03-21T17:33:36.424Z,33.44
2023-03-21T17:37:36.567Z,33.28
2023-03-21T17:41:36.762Z,33.61
2023-03-21T17:45:36.986Z,33.78
2023-03-21T17:49:37.150Z,34.01
2023-03-21T17:53:37.359Z,34.09
2023-03-21T17:57:37.600Z,34.20
2023-03-21T18:01:37.840Z,34.46
2023-03-21T18:05:37.983Z,34.56
2023-03-21T18:09:38.175Z,34.68
2023-03-21T18:13:38.481Z,34.89
2023-03-21T18:17:38.575Z,34.99
2023-03-21T18:21:38.768Z,35.11
2023-03-21T18:25:39.015Z,35.19
2023-03-21T18:30:25.823Z,35.30
2023-03-21T18:33:40.166Z,35.33
2023-03-21T18:37:39.098Z,35.29
2023-03-21T18:41:39.262Z,35.16
2023-03-21T18:45:39.443Z,35.10
2023-03-21T18:53:40.396Z,35.06
2023-03-21T18:57:39.524Z,35.10
2023-03-21T19:01:39.698Z,35.14
2023-03-21T19:05:39.758Z,35.15
2023-03-21T19:10:01.481Z,35.20
2023-03-21T19:13:40.700Z,35.18
2023-03-21T19:21:40.624Z,35.26
2023-03-21T19:25:39.588Z,35.32
2023-03-21T19:29:39.649Z,35.33
2023-03-21T19:33:39.774Z,35.27
2023-03-21T19:37:39.907Z,35.19
2023-03-21T19:41:40.686Z,35.18
2023-03-21T19:45:40.314Z,35.28
2023-03-21T19:50:15.819Z,35.33
2023-03-21T19:53:41.353Z,35.35
2023-03-21T19:57:40.328Z,35.37
2023-03-21T20:01:40.338Z,35.40
2023-03-21T20:05:40.233Z,35.37
2023-03-21T20:09:52.286Z,35.36
2023-03-21T20:13:41.194Z,35.33
2023-03-21T20:17:40.192Z,35.37
2023-03-21T20:21:49.135Z,35.42
2023-03-21T20:25:41.106Z,35.42
2023-03-21T20:30:10.424Z,35.50
2023-03-21T20:33:41.021Z,35.44
2023-03-21T20:37:39.964Z,35.44
2023-03-21T20:41:39.929Z,35.44
2023-03-21T20:45:39.901Z,35.43
2023-03-21T20:49:40.334Z,35.49
2023-03-21T20:53:39.835Z,35.51
2023-03-21T20:57:39.800Z,35.59
2023-03-21T21:01:39.842Z,35.56
2023-03-21T21:05:39.909Z,35.58
2023-03-21T21:09:39.951Z,35.63
2023-03-21T21:13:39.994Z,35.26
2023-03-21T21:18:04.763Z,34.95
2023-03-21T21:21:41.135Z,34.43
2023-03-21T21:25:40.109Z,34.16
2023-03-21T21:29:40.104Z,33.99
2023-03-21T21:33:40.060Z,33.83
2023-03-21T21:37:40.067Z,33.74
2023-03-21T21:41:40.092Z,33.63
2023-03-21T21:45:40.102Z,33.60
2023-03-21T21:49:40.163Z,33.53
2023-03-21T21:53:40.216Z,33.51
2023-03-21T21:57:40.236Z,33.43
2023-03-21T22:01:40.260Z,33.41
2023-03-21T22:05:40.277Z,33.37
2023-03-21T22:09:40.349Z,33.35
2023-03-21T22:13:40.382Z,33.34
2023-03-21T22:17:40.438Z,33.31
2023-03-21T22:21:40.505Z,33.30
2023-03-21T22:25:40.558Z,33.29
2023-03-21T22:29:40.664Z,33.28
2023-03-21T22:33:40.716Z,33.27
2023-03-21T22:37:40.868Z,33.26
2023-03-21T22:41:40.998Z,33.22
2023-03-21T22:45:41.198Z,33.20
2023-03-21T22:49:41.347Z,33.17
2023-03-21T22:53:41.530Z,33.16
2023-03-21T22:57:41.676Z,33.16
2023-03-21T23:01:41.855Z,33.13
2023-03-21T23:05:41.982Z,33.12
2023-03-21T23:09:42.206Z,33.13
2023-03-21T23:13:42.385Z,33.10
2023-03-21T23:17:42.528Z,33.10
2023-03-21T23:21:42.744Z,33.10
2023-03-21T23:25:42.981Z,33.07
2023-03-21T23:29:43.192Z,33.06
2023-03-21T23:33:43.389Z,33.06
2023-03-21T23:37:43.588Z,33.08
2023-03-21T23:41:43.822Z,33.05
2023-03-21T23:45:44.027Z,33.06
2023-03-21T23:49:44.250Z,33.04
2023-03-21T23:53:44.492Z,33.00
2023-03-21T23:57:44.673Z,33.00
